sensor_id;sensor_type;location;lat;lon;timestamp;temperature;humidity
35497;DHT22;21609;49.298;6.844;2023-12-07T00:01:13;17.30;49.80
35497;DHT22;21609;49.298;6.844;2023-12-07T00:03:39;17.30;49.80
35497;DHT22;21609;49.298;6.844;2023-12-07T00:06:05;17.20;49.70
35497;DHT22;21609;49.298;6.844;2023-12-07T00:08:30;17.20;49.90
35497;DHT22;21609;49.298;6.844;2023-12-07T00:10:56;17.20;49.80
35497;DHT22;21609;49.298;6.844;2023-12-07T00:13:21;17.20;49.90
35497;DHT22;21609;49.298;6.844;2023-12-07T00:15:47;17.20;49.80
35497;DHT22;21609;49.298;6.844;2023-12-07T00:18:13;17.10;49.80
35497;DHT22;21609;49.298;6.844;2023-12-07T00:20:38;17.10;49.80
35497;DHT22;21609;49.298;6.844;2023-12-07T00:23:04;17.10;49.90
35497;DHT22;21609;49.298;6.844;2023-12-07T00:25:30;17.10;49.80
35497;DHT22;21609;49.298;6.844;2023-12-07T00:27:55;17.10;49.80
35497;DHT22;21609;49.298;6.844;2023-12-07T00:30:21;17.10;49.90
35497;DHT22;21609;49.298;6.844;2023-12-07T00:32:46;17.10;49.80
35497;DHT22;21609;49.298;6.844;2023-12-07T00:35:12;17.10;49.90
35497;DHT22;21609;49.298;6.844;2023-12-07T00:37:38;17.10;50.50
35497;DHT22;21609;49.298;6.844;2023-12-07T00:40:04;17.00;50.00
35497;DHT22;21609;49.298;6.844;2023-12-07T00:42:30;17.00;50.00
35497;DHT22;21609;49.298;6.844;2023-12-07T00:44:57;17.00;50.00
35497;DHT22;21609;49.298;6.844;2023-12-07T00:47:22;17.00;50.00
35497;DHT22;21609;49.298;6.844;2023-12-07T00:49:48;17.00;49.90
35497;DHT22;21609;49.298;6.844;2023-12-07T00:52:14;16.90;50.00
35497;DHT22;21609;49.298;6.844;2023-12-07T00:54:39;16.90;50.10
35497;DHT22;21609;49.298;6.844;2023-12-07T00:57:08;16.90;50.10
35497;DHT22;21609;49.298;6.844;2023-12-07T00:59:33;16.90;50.10
35497;DHT22;21609;49.298;6.844;2023-12-07T01:02:05;16.90;50.20
35497;DHT22;21609;49.298;6.844;2023-12-07T01:04:32;16.90;50.80
35497;DHT22;21609;49.298;6.844;2023-12-07T01:06:58;16.90;50.40
35497;DHT22;21609;49.298;6.844;2023-12-07T01:09:24;16.90;50.90
35497;DHT22;21609;49.298;6.844;2023-12-07T01:11:50;16.90;51.20
35497;DHT22;21609;49.298;6.844;2023-12-07T01:14:16;16.90;50.90
35497;DHT22;21609;49.298;6.844;2023-12-07T01:16:42;16.90;50.60
35497;DHT22;21609;49.298;6.844;2023-12-07T01:19:08;16.90;50.50
35497;DHT22;21609;49.298;6.844;2023-12-07T01:21:34;16.90;50.40
35497;DHT22;21609;49.298;6.844;2023-12-07T01:23:59;16.90;50.90
35497;DHT22;21609;49.298;6.844;2023-12-07T01:26:25;16.80;50.50
35497;DHT22;21609;49.298;6.844;2023-12-07T01:28:51;16.80;50.20
35497;DHT22;21609;49.298;6.844;2023-12-07T01:31:17;16.80;50.50
35497;DHT22;21609;49.298;6.844;2023-12-07T01:33:45;16.80;50.40
35497;DHT22;21609;49.298;6.844;2023-12-07T01:36:11;16.80;50.40
35497;DHT22;21609;49.298;6.844;2023-12-07T01:38:37;16.70;50.50
35497;DHT22;21609;49.298;6.844;2023-12-07T01:41:02;16.70;50.60
35497;DHT22;21609;49.298;6.844;2023-12-07T01:43:28;16.70;50.30
35497;DHT22;21609;49.298;6.844;2023-12-07T01:45:56;16.70;50.30
35497;DHT22;21609;49.298;6.844;2023-12-07T01:48:23;16.70;50.40
35497;DHT22;21609;49.298;6.844;2023-12-07T01:50:49;16.70;50.30
35497;DHT22;21609;49.298;6.844;2023-12-07T01:53:16;16.70;50.40
35497;DHT22;21609;49.298;6.844;2023-12-07T01:55:42;16.70;50.50
35497;DHT22;21609;49.298;6.844;2023-12-07T01:58:08;16.60;50.50
35497;DHT22;21609;49.298;6.844;2023-12-07T02:00:34;16.60;50.60
35497;DHT22;21609;49.298;6.844;2023-12-07T02:03:03;16.60;50.50
35497;DHT22;21609;49.298;6.844;2023-12-07T02:05:29;16.60;50.80
35497;DHT22;21609;49.298;6.844;2023-12-07T02:07:56;16.60;50.50
35497;DHT22;21609;49.298;6.844;2023-12-07T02:10:22;16.60;50.50
35497;DHT22;21609;49.298;6.844;2023-12-07T02:12:47;16.60;50.60
35497;DHT22;21609;49.298;6.844;2023-12-07T02:15:13;16.50;50.40
35497;DHT22;21609;49.298;6.844;2023-12-07T02:18:02;16.60;50.50
35497;DHT22;21609;49.298;6.844;2023-12-07T02:20:34;16.50;50.50
35497;DHT22;21609;49.298;6.844;2023-12-07T02:23:04;16.50;50.50
35497;DHT22;21609;49.298;6.844;2023-12-07T02:25:45;16.50;50.40
35497;DHT22;21609;49.298;6.844;2023-12-07T02:28:13;16.50;50.40
35497;DHT22;21609;49.298;6.844;2023-12-07T02:30:39;16.50;50.30
35497;DHT22;21609;49.298;6.844;2023-12-07T02:33:04;16.50;50.50
35497;DHT22;21609;49.298;6.844;2023-12-07T02:35:30;16.50;50.40
35497;DHT22;21609;49.298;6.844;2023-12-07T02:37:57;16.50;50.60
35497;DHT22;21609;49.298;6.844;2023-12-07T02:40:27;16.40;50.60
35497;DHT22;21609;49.298;6.844;2023-12-07T02:42:54;16.40;50.50
35497;DHT22;21609;49.298;6.844;2023-12-07T02:45:20;16.40;50.70
35497;DHT22;21609;49.298;6.844;2023-12-07T02:47:46;16.40;50.70
35497;DHT22;21609;49.298;6.844;2023-12-07T02:50:12;16.40;50.60
35497;DHT22;21609;49.298;6.844;2023-12-07T02:52:38;16.40;50.80
35497;DHT22;21609;49.298;6.844;2023-12-07T02:55:05;16.40;50.50
35497;DHT22;21609;49.298;6.844;2023-12-07T02:57:30;16.30;50.60
35497;DHT22;21609;49.298;6.844;2023-12-07T02:59:57;16.40;50.80
35497;DHT22;21609;49.298;6.844;2023-12-07T03:02:23;16.30;50.80
35497;DHT22;21609;49.298;6.844;2023-12-07T03:04:48;16.30;50.70
35497;DHT22;21609;49.298;6.844;2023-12-07T03:07:14;16.30;50.70
35497;DHT22;21609;49.298;6.844;2023-12-07T03:09:39;16.30;50.70
35497;DHT22;21609;49.298;6.844;2023-12-07T03:12:06;16.30;50.90
35497;DHT22;21609;49.298;6.844;2023-12-07T03:14:31;16.30;51.10
35497;DHT22;21609;49.298;6.844;2023-12-07T03:16:57;16.30;50.80
35497;DHT22;21609;49.298;6.844;2023-12-07T03:19:22;16.20;50.70
35497;DHT22;21609;49.298;6.844;2023-12-07T03:21:48;16.20;50.80
35497;DHT22;21609;49.298;6.844;2023-12-07T03:24:13;16.20;50.70
35497;DHT22;21609;49.298;6.844;2023-12-07T03:26:39;16.20;51.00
35497;DHT22;21609;49.298;6.844;2023-12-07T03:29:04;16.20;50.90
35497;DHT22;21609;49.298;6.844;2023-12-07T03:31:30;16.20;51.00
35497;DHT22;21609;49.298;6.844;2023-12-07T03:33:56;16.20;50.90
35497;DHT22;21609;49.298;6.844;2023-12-07T03:36:22;16.20;50.80
35497;DHT22;21609;49.298;6.844;2023-12-07T03:38:48;16.20;50.70
35497;DHT22;21609;49.298;6.844;2023-12-07T03:41:14;16.20;50.80
35497;DHT22;21609;49.298;6.844;2023-12-07T03:43:40;16.10;50.90
35497;DHT22;21609;49.298;6.844;2023-12-07T03:46:06;16.10;51.00
35497;DHT22;21609;49.298;6.844;2023-12-07T03:48:33;16.10;50.80
35497;DHT22;21609;49.298;6.844;2023-12-07T03:50:59;16.10;50.90
35497;DHT22;21609;49.298;6.844;2023-12-07T03:53:24;16.10;51.00
35497;DHT22;21609;49.298;6.844;2023-12-07T03:55:50;16.10;51.00
35497;DHT22;21609;49.298;6.844;2023-12-07T03:58:16;16.10;51.00
35497;DHT22;21609;49.298;6.844;2023-12-07T04:00:42;16.10;50.90
35497;DHT22;21609;49.298;6.844;2023-12-07T04:03:07;16.10;51.20
35497;DHT22;21609;49.298;6.844;2023-12-07T04:05:33;16.10;51.10
35497;DHT22;21609;49.298;6.844;2023-12-07T04:07:59;16.10;51.10
35497;DHT22;21609;49.298;6.844;2023-12-07T04:10:24;16.00;51.20
35497;DHT22;21609;49.298;6.844;2023-12-07T04:12:50;16.00;51.30
35497;DHT22;21609;49.298;6.844;2023-12-07T04:15:18;16.00;51.10
35497;DHT22;21609;49.298;6.844;2023-12-07T04:17:43;16.00;51.00
35497;DHT22;21609;49.298;6.844;2023-12-07T04:20:09;16.00;51.10
35497;DHT22;21609;49.298;6.844;2023-12-07T04:22:35;16.00;51.00
35497;DHT22;21609;49.298;6.844;2023-12-07T04:25:00;16.00;51.00
35497;DHT22;21609;49.298;6.844;2023-12-07T04:27:26;16.00;51.00
35497;DHT22;21609;49.298;6.844;2023-12-07T04:29:51;16.00;51.00
35497;DHT22;21609;49.298;6.844;2023-12-07T04:32:17;15.90;51.10
35497;DHT22;21609;49.298;6.844;2023-12-07T04:34:42;15.90;51.00
35497;DHT22;21609;49.298;6.844;2023-12-07T04:37:08;15.90;51.10
35497;DHT22;21609;49.298;6.844;2023-12-07T04:39:33;15.90;51.30
35497;DHT22;21609;49.298;6.844;2023-12-07T04:42:00;15.90;51.10
35497;DHT22;21609;49.298;6.844;2023-12-07T04:44:25;15.90;51.40
35497;DHT22;21609;49.298;6.844;2023-12-07T04:46:51;15.90;51.00
35497;DHT22;21609;49.298;6.844;2023-12-07T04:49:17;15.90;51.00
35497;DHT22;21609;49.298;6.844;2023-12-07T04:51:43;15.90;51.00
35497;DHT22;21609;49.298;6.844;2023-12-07T04:54:12;15.90;51.00
35497;DHT22;21609;49.298;6.844;2023-12-07T04:56:39;15.90;50.90
35497;DHT22;21609;49.298;6.844;2023-12-07T04:59:05;15.80;50.80
35497;DHT22;21609;49.298;6.844;2023-12-07T05:01:30;15.80;51.00
35497;DHT22;21609;49.298;6.844;2023-12-07T05:03:56;15.80;51.00
35497;DHT22;21609;49.298;6.844;2023-12-07T05:06:21;15.80;51.00
35497;DHT22;21609;49.298;6.844;2023-12-07T05:08:47;15.80;50.90
35497;DHT22;21609;49.298;6.844;2023-12-07T05:11:12;15.80;51.00
35497;DHT22;21609;49.298;6.844;2023-12-07T05:13:38;15.80;51.10
35497;DHT22;21609;49.298;6.844;2023-12-07T05:16:04;15.80;51.10
35497;DHT22;21609;49.298;6.844;2023-12-07T05:18:29;15.80;51.00
35497;DHT22;21609;49.298;6.844;2023-12-07T05:20:55;15.70;51.10
35497;DHT22;21609;49.298;6.844;2023-12-07T05:23:21;15.70;51.00
35497;DHT22;21609;49.298;6.844;2023-12-07T05:25:47;15.70;51.10
35497;DHT22;21609;49.298;6.844;2023-12-07T05:28:12;15.70;51.30
35497;DHT22;21609;49.298;6.844;2023-12-07T05:30:38;15.70;51.30
35497;DHT22;21609;49.298;6.844;2023-12-07T05:33:03;15.70;51.10
35497;DHT22;21609;49.298;6.844;2023-12-07T05:35:29;15.70;51.00
35497;DHT22;21609;49.298;6.844;2023-12-07T05:37:54;15.70;51.00
35497;DHT22;21609;49.298;6.844;2023-12-07T05:40:20;15.70;51.00
35497;DHT22;21609;49.298;6.844;2023-12-07T05:42:49;15.60;50.90
35497;DHT22;21609;49.298;6.844;2023-12-07T05:45:15;15.70;51.10
35497;DHT22;21609;49.298;6.844;2023-12-07T05:47:41;15.60;51.00
35497;DHT22;21609;49.298;6.844;2023-12-07T05:50:07;15.70;51.00
35497;DHT22;21609;49.298;6.844;2023-12-07T05:52:33;15.60;51.30
35497;DHT22;21609;49.298;6.844;2023-12-07T05:54:58;15.60;51.00
35497;DHT22;21609;49.298;6.844;2023-12-07T05:57:24;15.60;51.00
35497;DHT22;21609;49.298;6.844;2023-12-07T05:59:49;15.60;50.90
35497;DHT22;21609;49.298;6.844;2023-12-07T06:02:15;15.60;51.40
35497;DHT22;21609;49.298;6.844;2023-12-07T06:04:41;15.60;51.10
35497;DHT22;21609;49.298;6.844;2023-12-07T06:07:09;15.60;51.10
35497;DHT22;21609;49.298;6.844;2023-12-07T06:09:35;15.60;51.20
35497;DHT22;21609;49.298;6.844;2023-12-07T06:12:00;15.60;51.20
35497;DHT22;21609;49.298;6.844;2023-12-07T06:14:26;15.50;51.10
35497;DHT22;21609;49.298;6.844;2023-12-07T06:16:51;15.50;51.30
35497;DHT22;21609;49.298;6.844;2023-12-07T06:19:17;15.50;51.00
35497;DHT22;21609;49.298;6.844;2023-12-07T06:21:43;15.50;51.10
35497;DHT22;21609;49.298;6.844;2023-12-07T06:24:09;15.50;51.30
35497;DHT22;21609;49.298;6.844;2023-12-07T06:26:35;15.50;51.00
35497;DHT22;21609;49.298;6.844;2023-12-07T06:29:01;15.50;51.10
35497;DHT22;21609;49.298;6.844;2023-12-07T06:31:27;15.50;51.20
35497;DHT22;21609;49.298;6.844;2023-12-07T06:33:53;15.50;51.20
35497;DHT22;21609;49.298;6.844;2023-12-07T06:36:22;15.50;51.50
35497;DHT22;21609;49.298;6.844;2023-12-07T06:38:48;15.40;51.00
35497;DHT22;21609;49.298;6.844;2023-12-07T06:41:14;15.50;51.30
35497;DHT22;21609;49.298;6.844;2023-12-07T06:43:41;15.30;50.20
35497;DHT22;21609;49.298;6.844;2023-12-07T06:46:06;15.10;51.30
35497;DHT22;21609;49.298;6.844;2023-12-07T06:48:32;15.50;51.10
35497;DHT22;21609;49.298;6.844;2023-12-07T06:50:57;15.70;50.50
35497;DHT22;21609;49.298;6.844;2023-12-07T06:53:23;15.90;50.10
35497;DHT22;21609;49.298;6.844;2023-12-07T06:55:49;16.00;49.80
35497;DHT22;21609;49.298;6.844;2023-12-07T06:58:14;16.30;49.60
35497;DHT22;21609;49.298;6.844;2023-12-07T07:00:40;16.40;49.20
35497;DHT22;21609;49.298;6.844;2023-12-07T07:03:05;16.60;49.20
35497;DHT22;21609;49.298;6.844;2023-12-07T07:05:34;16.70;49.20
35497;DHT22;21609;49.298;6.844;2023-12-07T07:07:59;16.80;49.10
35497;DHT22;21609;49.298;6.844;2023-12-07T07:10:25;16.90;49.30
35497;DHT22;21609;49.298;6.844;2023-12-07T07:12:50;16.90;49.50
35497;DHT22;21609;49.298;6.844;2023-12-07T07:15:16;17.00;49.30
35497;DHT22;21609;49.298;6.844;2023-12-07T07:17:42;17.10;49.20
35497;DHT22;21609;49.298;6.844;2023-12-07T07:20:08;17.10;49.60
35497;DHT22;21609;49.298;6.844;2023-12-07T07:22:33;17.10;49.80
35497;DHT22;21609;49.298;6.844;2023-12-07T07:25:00;17.00;50.10
35497;DHT22;21609;49.298;6.844;2023-12-07T07:27:25;17.00;50.30
35497;DHT22;21609;49.298;6.844;2023-12-07T07:29:51;17.10;50.60
35497;DHT22;21609;49.298;6.844;2023-12-07T07:32:17;17.20;50.30
35497;DHT22;21609;49.298;6.844;2023-12-07T07:34:43;17.20;50.20
35497;DHT22;21609;49.298;6.844;2023-12-07T07:37:08;17.30;50.30
35497;DHT22;21609;49.298;6.844;2023-12-07T07:39:34;17.40;50.20
35497;DHT22;21609;49.298;6.844;2023-12-07T07:42:00;17.40;50.30
35497;DHT22;21609;49.298;6.844;2023-12-07T07:44:25;17.50;50.90
35497;DHT22;21609;49.298;6.844;2023-12-07T07:46:51;17.50;50.20
35497;DHT22;21609;49.298;6.844;2023-12-07T07:49:17;17.70;50.00
35497;DHT22;21609;49.298;6.844;2023-12-07T07:51:42;17.80;50.00
35497;DHT22;21609;49.298;6.844;2023-12-07T07:54:08;17.80;49.90
35497;DHT22;21609;49.298;6.844;2023-12-07T07:56:33;17.90;49.90
35497;DHT22;21609;49.298;6.844;2023-12-07T07:58:59;18.00;49.80
35497;DHT22;21609;49.298;6.844;2023-12-07T08:01:26;18.00;49.80
35497;DHT22;21609;49.298;6.844;2023-12-07T08:03:51;18.00;49.90
35497;DHT22;21609;49.298;6.844;2023-12-07T08:06:17;18.00;49.80
35497;DHT22;21609;49.298;6.844;2023-12-07T08:08:43;18.10;49.90
35497;DHT22;21609;49.298;6.844;2023-12-07T08:11:08;18.10;49.80
35497;DHT22;21609;49.298;6.844;2023-12-07T08:13:34;18.20;49.80
35497;DHT22;21609;49.298;6.844;2023-12-07T08:16:00;18.20;49.70
35497;DHT22;21609;49.298;6.844;2023-12-07T08:18:26;18.30;49.70
35497;DHT22;21609;49.298;6.844;2023-12-07T08:20:52;18.40;49.60
35497;DHT22;21609;49.298;6.844;2023-12-07T08:23:17;18.50;49.60
35497;DHT22;21609;49.298;6.844;2023-12-07T08:25:43;18.50;49.50
35497;DHT22;21609;49.298;6.844;2023-12-07T08:28:09;18.50;49.50
35497;DHT22;21609;49.298;6.844;2023-12-07T08:30:35;18.50;49.40
35497;DHT22;21609;49.298;6.844;2023-12-07T08:33:01;18.60;49.30
35497;DHT22;21609;49.298;6.844;2023-12-07T08:35:26;18.60;49.30
35497;DHT22;21609;49.298;6.844;2023-12-07T08:37:52;18.60;49.40
35497;DHT22;21609;49.298;6.844;2023-12-07T08:40:18;18.60;49.20
35497;DHT22;21609;49.298;6.844;2023-12-07T08:42:45;18.60;49.20
35497;DHT22;21609;49.298;6.844;2023-12-07T08:45:11;18.70;49.30
35497;DHT22;21609;49.298;6.844;2023-12-07T08:47:39;18.70;49.20
35497;DHT22;21609;49.298;6.844;2023-12-07T08:50:05;18.70;49.10
35497;DHT22;21609;49.298;6.844;2023-12-07T08:52:30;18.70;49.10
35497;DHT22;21609;49.298;6.844;2023-12-07T08:54:56;18.70;49.10
35497;DHT22;21609;49.298;6.844;2023-12-07T08:57:21;18.70;49.10
35497;DHT22;21609;49.298;6.844;2023-12-07T08:59:47;18.70;48.80
35497;DHT22;21609;49.298;6.844;2023-12-07T09:02:12;18.70;48.80
35497;DHT22;21609;49.298;6.844;2023-12-07T09:04:38;18.70;48.90
35497;DHT22;21609;49.298;6.844;2023-12-07T09:07:05;18.70;49.00
35497;DHT22;21609;49.298;6.844;2023-12-07T09:09:31;18.70;48.80
35497;DHT22;21609;49.298;6.844;2023-12-07T09:11:56;18.70;48.70
35497;DHT22;21609;49.298;6.844;2023-12-07T09:14:22;18.70;48.60
35497;DHT22;21609;49.298;6.844;2023-12-07T09:16:47;18.70;48.70
35497;DHT22;21609;49.298;6.844;2023-12-07T09:19:13;18.70;48.60
35497;DHT22;21609;49.298;6.844;2023-12-07T09:21:40;18.70;48.70
35497;DHT22;21609;49.298;6.844;2023-12-07T09:24:06;18.60;48.90
35497;DHT22;21609;49.298;6.844;2023-12-07T09:26:32;18.70;48.70
35497;DHT22;21609;49.298;6.844;2023-12-07T09:28:57;18.60;49.00
35497;DHT22;21609;49.298;6.844;2023-12-07T09:31:23;18.60;48.90
35497;DHT22;21609;49.298;6.844;2023-12-07T09:33:48;18.60;48.80
35497;DHT22;21609;49.298;6.844;2023-12-07T09:36:17;18.60;48.90
35497;DHT22;21609;49.298;6.844;2023-12-07T09:38:44;18.50;49.30
35497;DHT22;21609;49.298;6.844;2023-12-07T09:41:10;18.50;48.90
35497;DHT22;21609;49.298;6.844;2023-12-07T09:43:36;18.50;48.70
35497;DHT22;21609;49.298;6.844;2023-12-07T09:46:02;18.50;48.50
35497;DHT22;21609;49.298;6.844;2023-12-07T09:48:27;18.50;48.60
35497;DHT22;21609;49.298;6.844;2023-12-07T09:50:55;18.40;49.00
35497;DHT22;21609;49.298;6.844;2023-12-07T09:53:21;18.50;48.50
35497;DHT22;21609;49.298;6.844;2023-12-07T09:55:47;18.50;48.50
35497;DHT22;21609;49.298;6.844;2023-12-07T09:58:12;18.40;48.30
35497;DHT22;21609;49.298;6.844;2023-12-07T10:00:38;18.40;48.40
35497;DHT22;21609;49.298;6.844;2023-12-07T10:03:05;18.40;48.50
35497;DHT22;21609;49.298;6.844;2023-12-07T10:05:33;18.40;48.20
35497;DHT22;21609;49.298;6.844;2023-12-07T10:07:59;18.40;48.10
35497;DHT22;21609;49.298;6.844;2023-12-07T10:10:25;18.40;48.00
35497;DHT22;21609;49.298;6.844;2023-12-07T10:12:55;18.40;48.00
35497;DHT22;21609;49.298;6.844;2023-12-07T10:15:23;18.40;47.90
35497;DHT22;21609;49.298;6.844;2023-12-07T10:20:21;18.50;47.80
35497;DHT22;21609;49.298;6.844;2023-12-07T10:23:03;18.50;47.70
35497;DHT22;21609;49.298;6.844;2023-12-07T10:25:36;18.50;47.60
35497;DHT22;21609;49.298;6.844;2023-12-07T10:28:02;18.50;47.60
35497;DHT22;21609;49.298;6.844;2023-12-07T10:30:32;18.50;47.40
35497;DHT22;21609;49.298;6.844;2023-12-07T10:32:58;18.50;47.30
35497;DHT22;21609;49.298;6.844;2023-12-07T10:35:23;18.60;47.30
35497;DHT22;21609;49.298;6.844;2023-12-07T10:37:49;18.60;47.20
35497;DHT22;21609;49.298;6.844;2023-12-07T10:40:15;18.50;47.10
35497;DHT22;21609;49.298;6.844;2023-12-07T10:42:41;18.50;47.10
35497;DHT22;21609;49.298;6.844;2023-12-07T10:45:07;18.60;47.20
35497;DHT22;21609;49.298;6.844;2023-12-07T10:47:38;18.50;47.10
35497;DHT22;21609;49.298;6.844;2023-12-07T10:50:08;18.40;47.50
35497;DHT22;21609;49.298;6.844;2023-12-07T10:52:51;18.10;47.30
35497;DHT22;21609;49.298;6.844;2023-12-07T10:55:28;18.00;48.10
35497;DHT22;21609;49.298;6.844;2023-12-07T10:57:55;18.10;48.30
35497;DHT22;21609;49.298;6.844;2023-12-07T11:00:21;18.10;48.20
35497;DHT22;21609;49.298;6.844;2023-12-07T11:02:52;18.30;48.60
35497;DHT22;21609;49.298;6.844;2023-12-07T11:05:18;18.40;48.20
35497;DHT22;21609;49.298;6.844;2023-12-07T11:07:57;18.50;48.10
35497;DHT22;21609;49.298;6.844;2023-12-07T11:13:35;18.80;48.10
35497;DHT22;21609;49.298;6.844;2023-12-07T11:16:02;18.90;48.20
35497;DHT22;21609;49.298;6.844;2023-12-07T11:18:28;18.80;48.20
35497;DHT22;21609;49.298;6.844;2023-12-07T11:20:55;18.90;48.00
35497;DHT22;21609;49.298;6.844;2023-12-07T11:23:24;18.90;47.80
35497;DHT22;21609;49.298;6.844;2023-12-07T11:25:52;18.90;47.80
35497;DHT22;21609;49.298;6.844;2023-12-07T11:28:37;18.90;47.80
35497;DHT22;21609;49.298;6.844;2023-12-07T11:31:06;19.00;47.80
35497;DHT22;21609;49.298;6.844;2023-12-07T11:33:32;19.00;47.80
35497;DHT22;21609;49.298;6.844;2023-12-07T11:36:18;19.00;47.80
35497;DHT22;21609;49.298;6.844;2023-12-07T11:41:44;19.00;47.80
35497;DHT22;21609;49.298;6.844;2023-12-07T11:44:13;19.10;47.80
35497;DHT22;21609;49.298;6.844;2023-12-07T11:46:39;19.20;47.80
35497;DHT22;21609;49.298;6.844;2023-12-07T11:49:04;19.30;47.60
35497;DHT22;21609;49.298;6.844;2023-12-07T11:51:33;19.30;47.60
35497;DHT22;21609;49.298;6.844;2023-12-07T11:53:59;19.40;47.40
35497;DHT22;21609;49.298;6.844;2023-12-07T11:56:28;19.40;47.30
35497;DHT22;21609;49.298;6.844;2023-12-07T11:58:54;19.50;47.30
35497;DHT22;21609;49.298;6.844;2023-12-07T12:01:21;19.50;47.30
35497;DHT22;21609;49.298;6.844;2023-12-07T12:03:49;19.50;47.40
35497;DHT22;21609;49.298;6.844;2023-12-07T12:06:15;19.60;47.30
35497;DHT22;21609;49.298;6.844;2023-12-07T12:08:43;19.60;47.40
35497;DHT22;21609;49.298;6.844;2023-12-07T12:11:09;19.50;47.30
35497;DHT22;21609;49.298;6.844;2023-12-07T12:13:35;19.50;47.40
35497;DHT22;21609;49.298;6.844;2023-12-07T12:16:02;19.40;47.50
35497;DHT22;21609;49.298;6.844;2023-12-07T12:18:28;19.50;47.50
35497;DHT22;21609;49.298;6.844;2023-12-07T12:20:54;19.50;47.40
35497;DHT22;21609;49.298;6.844;2023-12-07T12:23:20;19.50;47.60
35497;DHT22;21609;49.298;6.844;2023-12-07T12:25:47;19.50;47.40
35497;DHT22;21609;49.298;6.844;2023-12-07T12:28:15;19.40;47.60
35497;DHT22;21609;49.298;6.844;2023-12-07T12:30:45;19.50;47.60
35497;DHT22;21609;49.298;6.844;2023-12-07T12:33:10;19.40;47.60
35497;DHT22;21609;49.298;6.844;2023-12-07T12:35:37;19.40;47.60
35497;DHT22;21609;49.298;6.844;2023-12-07T12:38:09;19.40;47.70
35497;DHT22;21609;49.298;6.844;2023-12-07T12:40:54;19.40;47.70
35497;DHT22;21609;49.298;6.844;2023-12-07T12:43:22;19.40;47.70
35497;DHT22;21609;49.298;6.844;2023-12-07T12:45:48;19.40;47.70
35497;DHT22;21609;49.298;6.844;2023-12-07T12:48:17;19.20;47.80
35497;DHT22;21609;49.298;6.844;2023-12-07T12:50:43;19.20;48.00
35497;DHT22;21609;49.298;6.844;2023-12-07T12:53:10;19.30;47.90
35497;DHT22;21609;49.298;6.844;2023-12-07T12:55:40;19.30;47.90
35497;DHT22;21609;49.298;6.844;2023-12-07T12:58:07;19.30;47.70
35497;DHT22;21609;49.298;6.844;2023-12-07T13:00:33;19.40;47.70
35497;DHT22;21609;49.298;6.844;2023-12-07T13:03:00;19.40;47.80
35497;DHT22;21609;49.298;6.844;2023-12-07T13:05:26;19.40;47.80
35497;DHT22;21609;49.298;6.844;2023-12-07T13:07:52;19.40;47.80
35497;DHT22;21609;49.298;6.844;2023-12-07T13:10:18;19.40;47.80
35497;DHT22;21609;49.298;6.844;2023-12-07T13:12:44;19.40;47.70
35497;DHT22;21609;49.298;6.844;2023-12-07T13:15:10;19.40;47.80
35497;DHT22;21609;49.298;6.844;2023-12-07T13:17:38;19.40;47.70
35497;DHT22;21609;49.298;6.844;2023-12-07T13:20:08;19.40;47.70
35497;DHT22;21609;49.298;6.844;2023-12-07T13:22:39;19.40;47.80
35497;DHT22;21609;49.298;6.844;2023-12-07T13:25:08;19.40;48.40
35497;DHT22;21609;49.298;6.844;2023-12-07T13:27:37;19.40;47.80
35497;DHT22;21609;49.298;6.844;2023-12-07T13:30:03;19.40;47.60
35497;DHT22;21609;49.298;6.844;2023-12-07T13:32:33;19.50;47.60
35497;DHT22;21609;49.298;6.844;2023-12-07T13:34:59;19.50;47.60
35497;DHT22;21609;49.298;6.844;2023-12-07T13:37:25;19.50;47.50
35497;DHT22;21609;49.298;6.844;2023-12-07T13:39:50;19.40;47.60
35497;DHT22;21609;49.298;6.844;2023-12-07T13:42:21;19.30;47.70
35497;DHT22;21609;49.298;6.844;2023-12-07T13:44:47;19.30;47.80
35497;DHT22;21609;49.298;6.844;2023-12-07T13:47:16;19.30;47.50
35497;DHT22;21609;49.298;6.844;2023-12-07T13:49:42;19.20;47.80
35497;DHT22;21609;49.298;6.844;2023-12-07T13:52:08;19.20;47.70
35497;DHT22;21609;49.298;6.844;2023-12-07T13:54:36;19.20;47.80
35497;DHT22;21609;49.298;6.844;2023-12-07T13:57:02;19.20;47.80
35497;DHT22;21609;49.298;6.844;2023-12-07T13:59:29;19.20;47.70
35497;DHT22;21609;49.298;6.844;2023-12-07T14:01:54;19.30;47.80
35497;DHT22;21609;49.298;6.844;2023-12-07T14:04:24;19.20;47.30
35497;DHT22;21609;49.298;6.844;2023-12-07T14:06:52;19.20;47.90
35497;DHT22;21609;49.298;6.844;2023-12-07T14:09:18;19.20;47.80
35497;DHT22;21609;49.298;6.844;2023-12-07T14:11:44;19.20;47.60
35497;DHT22;21609;49.298;6.844;2023-12-07T14:14:09;19.20;47.80
35497;DHT22;21609;49.298;6.844;2023-12-07T14:16:37;19.40;48.00
35497;DHT22;21609;49.298;6.844;2023-12-07T14:19:03;19.30;47.60
35497;DHT22;21609;49.298;6.844;2023-12-07T14:21:28;19.30;47.90
35497;DHT22;21609;49.298;6.844;2023-12-07T14:23:54;19.30;47.50
35497;DHT22;21609;49.298;6.844;2023-12-07T14:26:22;19.30;47.60
35497;DHT22;21609;49.298;6.844;2023-12-07T14:28:48;19.30;47.80
35497;DHT22;21609;49.298;6.844;2023-12-07T14:31:16;19.30;47.70
35497;DHT22;21609;49.298;6.844;2023-12-07T14:33:44;19.20;47.80
35497;DHT22;21609;49.298;6.844;2023-12-07T14:36:10;19.30;47.70
35497;DHT22;21609;49.298;6.844;2023-12-07T14:38:36;19.30;47.60
35497;DHT22;21609;49.298;6.844;2023-12-07T14:41:02;19.30;47.70
35497;DHT22;21609;49.298;6.844;2023-12-07T14:43:29;19.30;47.60
35497;DHT22;21609;49.298;6.844;2023-12-07T14:45:55;19.40;47.80
35497;DHT22;21609;49.298;6.844;2023-12-07T14:48:20;19.30;47.40
35497;DHT22;21609;49.298;6.844;2023-12-07T14:50:48;19.30;47.60
35497;DHT22;21609;49.298;6.844;2023-12-07T14:53:17;19.30;47.60
35497;DHT22;21609;49.298;6.844;2023-12-07T14:55:45;19.20;47.60
35497;DHT22;21609;49.298;6.844;2023-12-07T14:58:13;19.20;47.70
35497;DHT22;21609;49.298;6.844;2023-12-07T15:00:39;19.20;47.90
35497;DHT22;21609;49.298;6.844;2023-12-07T15:03:07;19.30;47.60
35497;DHT22;21609;49.298;6.844;2023-12-07T15:05:38;19.30;47.60
35497;DHT22;21609;49.298;6.844;2023-12-07T15:08:06;19.30;47.70
35497;DHT22;21609;49.298;6.844;2023-12-07T15:10:31;19.30;47.60
35497;DHT22;21609;49.298;6.844;2023-12-07T15:12:57;19.30;47.50
35497;DHT22;21609;49.298;6.844;2023-12-07T15:15:22;19.30;47.50
35497;DHT22;21609;49.298;6.844;2023-12-07T15:17:48;19.30;47.50
35497;DHT22;21609;49.298;6.844;2023-12-07T15:20:14;19.20;47.50
35497;DHT22;21609;49.298;6.844;2023-12-07T15:22:39;19.20;47.80
35497;DHT22;21609;49.298;6.844;2023-12-07T15:25:07;19.10;47.50
35497;DHT22;21609;49.298;6.844;2023-12-07T15:27:33;19.20;47.60
35497;DHT22;21609;49.298;6.844;2023-12-07T15:29:58;19.20;47.60
35497;DHT22;21609;49.298;6.844;2023-12-07T15:32:24;19.20;47.40
35497;DHT22;21609;49.298;6.844;2023-12-07T15:34:49;19.20;47.60